createdAt,value
2023-03-29T00:00:51.426Z,7.25
2023-03-29T00:03:03.192Z,7.27
2023-03-29T00:05:15.207Z,7.30
2023-03-29T00:07:26.611Z,7.31
2023-03-29T00:09:36.992Z,7.33
2023-03-29T00:11:46.900Z,7.36
2023-03-29T00:13:56.972Z,7.38
2023-03-29T00:16:07.772Z,7.39
2023-03-29T00:18:18.512Z,7.40
2023-03-29T00:20:31.090Z,7.41
2023-03-29T00:22:43.751Z,7.40
2023-03-29T00:24:54.673Z,7.39
2023-03-29T00:27:04.690Z,7.37
2023-03-29T00:29:14.729Z,7.36
2023-03-29T00:31:24.454Z,7.36
2023-03-29T00:33:34.758Z,7.36
2023-03-29T00:35:44.976Z,7.34
2023-03-29T00:37:54.908Z,7.32
2023-03-29T00:40:18.840Z,7.30
2023-03-29T00:42:31.982Z,7.28
2023-03-29T00:45:21.191Z,7.27
2023-03-29T00:47:34.822Z,7.25
2023-03-29T00:49:45.449Z,7.23
2023-03-29T00:51:55.662Z,7.21
2023-03-29T00:54:07.060Z,7.18
2023-03-29T00:56:20.951Z,7.15
2023-03-29T00:58:37.512Z,7.11
2023-03-29T01:00:54.643Z,7.06
2023-03-29T01:03:14.103Z,7.02
2023-03-29T01:05:30.073Z,6.99
2023-03-29T01:07:48.562Z,6.98
2023-03-29T01:10:01.989Z,6.98
2023-03-29T01:12:19.148Z,6.97
2023-03-29T01:14:36.285Z,6.96
2023-03-29T01:16:47.353Z,6.96
2023-03-29T01:18:58.737Z,6.97
2023-03-29T01:21:29.794Z,6.96
2023-03-29T01:23:58.719Z,6.94
2023-03-29T01:26:16.953Z,6.93
2023-03-29T01:28:32.029Z,6.94
2023-03-29T01:30:48.802Z,6.95
2023-03-29T01:33:02.272Z,6.93
2023-03-29T01:35:17.966Z,6.93
2023-03-29T01:37:32.824Z,6.93
2023-03-29T01:39:42.765Z,6.88
2023-03-29T01:42:05.313Z,6.83
2023-03-29T01:44:20.798Z,6.82
2023-03-29T01:46:36.556Z,6.82
2023-03-29T01:48:52.893Z,6.82
2023-03-29T01:51:09.630Z,6.83
2023-03-29T01:53:25.164Z,6.85
2023-03-29T01:55:38.820Z,6.88
2023-03-29T01:57:51.092Z,6.90
2023-03-29T02:00:07.814Z,6.91
2023-03-29T02:02:22.838Z,6.94
2023-03-29T02:04:38.523Z,6.95
2023-03-29T02:06:50.993Z,6.97
2023-03-29T02:09:01.020Z,6.97
2023-03-29T02:11:11.151Z,6.94
2023-03-29T02:13:21.583Z,6.90
2023-03-29T02:15:32.359Z,6.90
2023-03-29T02:17:42.907Z,6.89
2023-03-29T02:19:56.423Z,6.87
2023-03-29T02:22:11.860Z,6.85
2023-03-29T02:24:26.663Z,6.83
2023-03-29T02:26:37.177Z,6.80
2023-03-29T02:28:47.165Z,6.77
2023-03-29T02:31:01.970Z,6.74
2023-03-29T02:33:17.416Z,6.71
2023-03-29T02:35:35.368Z,6.65
2023-03-29T02:37:49.952Z,6.59
2023-03-29T02:40:01.479Z,6.55
2023-03-29T02:42:12.603Z,6.52
2023-03-29T02:44:26.693Z,6.48
2023-03-29T02:46:38.494Z,6.43
2023-03-29T02:48:51.904Z,6.41
2023-03-29T02:51:07.486Z,6.39
2023-03-29T02:53:21.515Z,6.40
2023-03-29T02:55:36.166Z,6.41
2023-03-29T02:57:46.688Z,6.40
2023-03-29T02:59:57.906Z,6.38
2023-03-29T03:02:07.945Z,6.38
2023-03-29T03:04:21.556Z,6.37
2023-03-29T03:06:33.805Z,6.33
2023-03-29T03:08:46.751Z,6.32
2023-03-29T03:10:57.363Z,6.32
2023-03-29T03:13:07.755Z,6.33
2023-03-29T03:15:18.384Z,6.31
2023-03-29T03:17:28.789Z,6.30
2023-03-29T03:19:39.324Z,6.29
2023-03-29T03:21:50.052Z,6.28
2023-03-29T03:24:00.359Z,6.29
2023-03-29T03:26:11.462Z,6.30
2023-03-29T03:28:24.635Z,6.31
2023-03-29T03:30:35.279Z,6.32
2023-03-29T03:33:03.465Z,6.31
2023-03-29T03:35:32.261Z,6.28
2023-03-29T03:37:43.441Z,6.27
2023-03-29T03:39:54.464Z,6.24
2023-03-29T03:42:07.889Z,6.22
2023-03-29T03:44:22.824Z,6.19
2023-03-29T03:46:48.970Z,6.18
2023-03-29T03:48:59.910Z,6.18
2023-03-29T03:51:16.798Z,6.19
2023-03-29T03:53:28.332Z,6.19
2023-03-29T03:55:58.637Z,6.20
2023-03-29T03:58:14.509Z,6.19
2023-03-29T04:00:25.006Z,6.20
2023-03-29T04:02:44.737Z,6.22
2023-03-29T04:04:55.529Z,6.23
2023-03-29T04:07:13.894Z,6.23
2023-03-29T04:09:42.950Z,6.24
2023-03-29T04:12:10.091Z,6.27
2023-03-29T04:14:21.162Z,6.30
2023-03-29T04:16:31.991Z,6.31
2023-03-29T04:18:50.748Z,6.32
2023-03-29T04:21:01.650Z,6.33
2023-03-29T04:23:14.124Z,6.34
2023-03-29T04:25:24.597Z,6.32
2023-03-29T04:28:01.157Z,6.29
2023-03-29T04:30:34.621Z,6.27
2023-03-29T04:33:13.505Z,6.27
2023-03-29T04:35:24.925Z,6.27
2023-03-29T04:37:35.110Z,6.25
2023-03-29T04:39:45.855Z,6.24
2023-03-29T04:41:56.097Z,6.23
2023-03-29T04:44:10.308Z,6.21
2023-03-29T04:46:20.614Z,6.20
2023-03-29T04:48:54.417Z,6.18
2023-03-29T04:51:13.316Z,6.16
2023-03-29T04:53:24.724Z,6.16
2023-03-29T04:55:34.487Z,6.17
2023-03-29T04:57:46.187Z,6.18
2023-03-29T05:00:01.970Z,6.20
2023-03-29T05:02:38.225Z,6.22
2023-03-29T05:04:48.388Z,6.23
2023-03-29T05:06:59.845Z,6.23
2023-03-29T05:09:11.165Z,6.22
2023-03-29T05:11:28.962Z,6.23
2023-03-29T05:13:40.493Z,6.21
2023-03-29T05:15:50.475Z,6.19
2023-03-29T05:18:01.203Z,6.19
2023-03-29T05:20:13.752Z,6.17
2023-03-29T05:22:26.311Z,6.18
2023-03-29T05:24:39.158Z,6.20
2023-03-29T05:26:57.028Z,6.20
2023-03-29T05:29:09.712Z,6.19
2023-03-29T05:31:20.605Z,6.18
2023-03-29T05:33:36.941Z,6.18
2023-03-29T05:35:47.979Z,6.17
2023-03-29T05:37:58.793Z,6.17
2023-03-29T05:40:10.792Z,6.17
2023-03-29T05:42:47.159Z,6.16
2023-03-29T05:44:59.469Z,6.15
2023-03-29T05:47:09.460Z,6.14
2023-03-29T05:49:19.318Z,6.12
2023-03-29T05:51:39.945Z,6.10
2023-03-29T05:53:49.711Z,6.08
2023-03-29T05:55:59.714Z,6.07
2023-03-29T05:58:10.783Z,6.05
2023-03-29T06:00:26.111Z,6.02
2023-03-29T06:02:42.814Z,6.01
2023-03-29T06:04:54.378Z,5.98
2023-03-29T06:07:07.524Z,5.97
2023-03-29T06:09:20.965Z,5.95
2023-03-29T06:11:42.214Z,5.90
2023-03-29T06:14:05.295Z,5.87
2023-03-29T06:16:16.020Z,5.84
2023-03-29T06:18:26.073Z,5.80
2023-03-29T06:20:35.992Z,5.77
2023-03-29T06:22:50.502Z,5.72
2023-03-29T06:25:00.301Z,5.70
2023-03-29T06:27:12.435Z,5.66
2023-03-29T06:29:26.324Z,5.62
2023-03-29T06:31:37.762Z,5.58
2023-03-29T06:33:48.534Z,5.56
2023-03-29T06:36:17.138Z,5.52
2023-03-29T06:38:28.795Z,5.49
2023-03-29T06:41:04.691Z,5.46
2023-03-29T06:43:30.215Z,5.44
2023-03-29T06:45:50.974Z,5.43
2023-03-29T06:48:17.098Z,5.41
2023-03-29T06:50:28.343Z,5.42
2023-03-29T06:53:04.828Z,5.42
2023-03-29T06:55:16.462Z,5.42
2023-03-29T06:57:26.804Z,5.42
2023-03-29T06:59:37.193Z,5.43
2023-03-29T07:02:09.236Z,5.43
2023-03-29T07:04:32.867Z,5.43
2023-03-29T07:07:02.918Z,5.44
2023-03-29T07:09:18.280Z,5.45
2023-03-29T07:11:55.214Z,5.46
2023-03-29T07:14:06.553Z,5.46
2023-03-29T07:16:16.978Z,5.46
2023-03-29T07:18:37.000Z,5.45
2023-03-29T07:20:48.044Z,5.44
2023-03-29T07:22:58.452Z,5.43
2023-03-29T07:25:10.037Z,5.43
2023-03-29T07:27:21.258Z,5.42
2023-03-29T07:29:31.872Z,5.43
2023-03-29T07:31:42.552Z,5.44
2023-03-29T07:34:33.162Z,5.45
2023-03-29T07:36:44.287Z,5.47
2023-03-29T07:38:56.309Z,5.49
2023-03-29T07:41:08.506Z,5.51
2023-03-29T07:43:33.000Z,5.54
2023-03-29T07:45:45.143Z,5.54
2023-03-29T07:47:59.048Z,5.55
2023-03-29T07:50:15.398Z,5.56
2023-03-29T07:52:26.030Z,5.57
2023-03-29T07:54:36.139Z,5.58
2023-03-29T07:57:09.457Z,5.58
2023-03-29T07:59:25.290Z,5.58
2023-03-29T08:01:43.539Z,5.58
2023-03-29T08:04:12.823Z,5.58
2023-03-29T08:06:41.328Z,5.61
2023-03-29T08:08:51.270Z,5.63
2023-03-29T08:11:01.257Z,5.65
2023-03-29T08:13:40.671Z,5.65
2023-03-29T08:16:12.388Z,5.65
2023-03-29T08:18:32.847Z,5.66
2023-03-29T08:20:45.343Z,5.65
2023-03-29T08:22:56.392Z,5.65
2023-03-29T08:25:39.335Z,5.65
2023-03-29T08:27:51.266Z,5.65
2023-03-29T08:30:13.469Z,5.65
2023-03-29T08:32:24.052Z,5.65
2023-03-29T08:34:36.336Z,5.64
2023-03-29T08:37:04.159Z,5.63
2023-03-29T08:39:27.534Z,5.63
2023-03-29T08:42:10.003Z,5.62
2023-03-29T08:44:29.533Z,5.60
2023-03-29T08:46:52.499Z,5.60
2023-03-29T08:49:12.720Z,5.60
2023-03-29T08:51:27.981Z,5.59
2023-03-29T08:53:43.264Z,5.56
2023-03-29T08:56:20.352Z,5.54
2023-03-29T08:58:50.134Z,5.53
2023-03-29T09:01:02.971Z,5.52
2023-03-29T09:03:24.302Z,5.52
2023-03-29T09:05:41.074Z,5.52
2023-03-29T09:08:07.773Z,5.50
2023-03-29T09:10:19.875Z,5.49
2023-03-29T09:12:43.628Z,5.47
2023-03-29T09:15:07.359Z,5.45
2023-03-29T09:17:37.896Z,5.43
2023-03-29T09:19:57.143Z,5.41
2023-03-29T09:22:17.621Z,5.39
2023-03-29T09:25:02.757Z,5.36
2023-03-29T09:27:18.884Z,5.34
2023-03-29T09:29:51.892Z,5.31
2023-03-29T09:32:13.144Z,5.28
2023-03-29T09:34:30.787Z,5.25
2023-03-29T09:36:52.802Z,5.25
2023-03-29T09:39:05.421Z,5.23
2023-03-29T09:41:25.372Z,5.21
2023-03-29T09:43:40.441Z,5.20
2023-03-29T09:45:59.678Z,5.20
2023-03-29T09:48:15.357Z,5.19
2023-03-29T09:50:33.328Z,5.20
2023-03-29T09:52:44.989Z,5.19
2023-03-29T09:55:02.095Z,5.17
2023-03-29T09:57:35.663Z,5.15
2023-03-29T09:59:46.589Z,5.14
2023-03-29T10:02:07.240Z,5.13
2023-03-29T10:04:22.032Z,5.09
2023-03-29T10:06:37.262Z,5.06
2023-03-29T10:08:53.934Z,5.03
2023-03-29T10:11:09.157Z,5.01
2023-03-29T10:13:24.585Z,4.99
2023-03-29T10:15:35.083Z,4.94
2023-03-29T10:17:46.606Z,4.92
2023-03-29T10:19:58.619Z,4.91
2023-03-29T10:22:17.111Z,4.90
2023-03-29T10:24:28.903Z,4.89
2023-03-29T10:26:40.543Z,4.88
2023-03-29T10:28:53.292Z,4.87
2023-03-29T10:31:06.684Z,4.86
2023-03-29T10:33:24.480Z,4.87
2023-03-29T10:35:40.782Z,4.86
2023-03-29T10:37:55.636Z,4.88
2023-03-29T10:40:06.401Z,4.92
2023-03-29T10:42:18.637Z,4.96
2023-03-29T10:44:34.966Z,5.01
2023-03-29T10:46:47.509Z,5.04
2023-03-29T10:48:58.565Z,5.08
2023-03-29T10:51:09.747Z,5.12
2023-03-29T10:53:25.389Z,5.16
2023-03-29T10:55:41.553Z,5.20
2023-03-29T10:58:03.314Z,5.25
2023-03-29T11:00:20.321Z,5.28
2023-03-29T11:03:07.111Z,5.32
2023-03-29T11:05:26.401Z,5.36
2023-03-29T11:07:42.382Z,5.38
2023-03-29T11:10:01.475Z,5.41
2023-03-29T11:12:19.201Z,5.43
2023-03-29T11:14:40.932Z,5.45
2023-03-29T11:17:01.055Z,5.46
2023-03-29T11:19:22.334Z,5.48
2023-03-29T11:21:41.474Z,5.49
2023-03-29T11:23:59.125Z,5.50
2023-03-29T11:26:18.471Z,5.52
2023-03-29T11:28:39.518Z,5.53
2023-03-29T11:30:59.786Z,5.53
2023-03-29T11:33:32.442Z,5.53
2023-03-29T11:35:50.374Z,5.53
2023-03-29T11:38:07.852Z,5.53
2023-03-29T11:40:40.730Z,5.52
2023-03-29T11:42:56.066Z,5.50
2023-03-29T11:45:08.599Z,5.50
2023-03-29T11:47:20.008Z,5.50
2023-03-29T11:49:35.308Z,5.48
2023-03-29T11:51:49.751Z,5.48
2023-03-29T11:54:10.080Z,5.48
2023-03-29T11:56:26.694Z,5.47
2023-03-29T11:58:42.051Z,5.46
2023-03-29T12:00:59.047Z,5.45
2023-03-29T12:03:14.952Z,5.44
2023-03-29T12:05:28.950Z,5.43
2023-03-29T12:07:44.312Z,5.42
2023-03-29T12:09:58.755Z,5.41
2023-03-29T12:12:15.842Z,5.40
2023-03-29T12:14:30.617Z,5.38
2023-03-29T12:16:46.410Z,5.35
2023-03-29T12:19:00.188Z,5.34
2023-03-29T12:21:15.075Z,5.32
2023-03-29T12:23:26.167Z,5.30
2023-03-29T12:25:47.217Z,5.28
2023-03-29T12:28:08.286Z,5.26
2023-03-29T12:30:41.440Z,5.25
2023-03-29T12:33:12.029Z,5.25
2023-03-29T12:35:39.082Z,5.24
2023-03-29T12:38:15.804Z,5.23
2023-03-29T12:40:48.399Z,5.22
2023-03-29T12:43:31.006Z,5.20
2023-03-29T12:46:12.383Z,5.15
2023-03-29T12:48:25.293Z,5.11
2023-03-29T12:50:39.916Z,5.08
2023-03-29T12:52:49.875Z,5.06
2023-03-29T12:55:01.526Z,5.04
2023-03-29T12:57:28.565Z,5.02
2023-03-29T12:59:46.877Z,5.00
2023-03-29T13:02:26.453Z,4.98
2023-03-29T13:04:51.450Z,4.92
2023-03-29T13:07:07.579Z,4.86
2023-03-29T13:09:30.034Z,4.81
2023-03-29T13:11:44.290Z,4.76
2023-03-29T13:13:55.553Z,4.72
2023-03-29T13:16:17.480Z,4.70
2023-03-29T13:18:51.445Z,4.66
2023-03-29T13:21:12.145Z,4.64
2023-03-29T13:23:42.562Z,4.62
2023-03-29T13:26:13.646Z,4.59
2023-03-29T13:28:31.766Z,4.52
2023-03-29T13:30:54.608Z,4.46
2023-03-29T13:33:21.486Z,4.41
2023-03-29T13:35:44.052Z,4.38
2023-03-29T13:38:07.176Z,4.37
2023-03-29T13:40:45.329Z,4.36
2023-03-29T13:43:02.374Z,4.36
2023-03-29T13:45:19.175Z,4.35
2023-03-29T13:47:58.254Z,4.33
2023-03-29T13:50:19.485Z,4.34
2023-03-29T13:52:32.962Z,4.35
2023-03-29T13:54:48.457Z,4.36
2023-03-29T13:57:08.191Z,4.36
2023-03-29T13:59:22.614Z,4.33
2023-03-29T14:01:40.190Z,4.28
2023-03-29T14:03:52.235Z,4.23
2023-03-29T14:06:05.377Z,4.19
2023-03-29T14:08:23.033Z,4.15
2023-03-29T14:10:38.244Z,4.14
2023-03-29T14:12:48.583Z,4.13
2023-03-29T14:15:06.239Z,4.12
2023-03-29T14:17:23.124Z,4.15
2023-03-29T14:19:37.124Z,4.19
2023-03-29T14:21:47.984Z,4.22
2023-03-29T14:24:02.814Z,4.26
2023-03-29T14:26:19.492Z,4.29
2023-03-29T14:28:31.143Z,4.29
2023-03-29T14:30:48.456Z,4.28
2023-03-29T14:32:59.065Z,4.26
2023-03-29T14:35:13.328Z,4.26
2023-03-29T14:37:30.753Z,4.26
2023-03-29T14:39:42.632Z,4.27
2023-03-29T14:41:54.902Z,4.27
2023-03-29T14:44:05.261Z,4.28
2023-03-29T14:46:17.629Z,4.28
2023-03-29T14:48:25.583Z,4.29
2023-03-29T14:50:35.562Z,4.29
2023-03-29T14:52:47.575Z,4.32
2023-03-29T14:55:01.334Z,4.36
2023-03-29T14:57:15.923Z,4.41
2023-03-29T14:59:38.484Z,4.47
2023-03-29T15:01:49.514Z,4.53
2023-03-29T15:04:08.106Z,4.59
2023-03-29T15:06:18.902Z,4.67
2023-03-29T15:08:34.782Z,4.73
2023-03-29T15:10:45.155Z,4.80
2023-03-29T15:12:55.704Z,4.86
2023-03-29T15:15:08.214Z,4.89
2023-03-29T15:17:28.068Z,4.93
2023-03-29T15:19:43.479Z,4.96
2023-03-29T15:21:54.729Z,4.99
2023-03-29T15:24:06.409Z,5.03
2023-03-29T15:26:23.813Z,5.06
2023-03-29T15:28:35.621Z,5.07
2023-03-29T15:31:00.790Z,5.08
2023-03-29T15:33:25.387Z,5.11
2023-03-29T15:35:35.556Z,5.14
2023-03-29T15:37:47.763Z,5.19
2023-03-29T15:39:58.099Z,5.24
2023-03-29T15:42:08.578Z,5.30
2023-03-29T15:44:19.633Z,5.36
2023-03-29T15:46:29.833Z,5.43
2023-03-29T15:48:39.813Z,5.51
2023-03-29T15:50:49.763Z,5.60
2023-03-29T15:53:14.103Z,5.70
2023-03-29T15:55:26.591Z,5.84
2023-03-29T15:57:37.457Z,5.97
2023-03-29T15:59:48.504Z,6.09
2023-03-29T16:01:58.775Z,6.20
2023-03-29T16:04:12.410Z,6.29
2023-03-29T16:06:24.349Z,6.36
2023-03-29T16:08:34.430Z,6.40
2023-03-29T16:10:45.452Z,6.43
2023-03-29T16:12:55.545Z,6.46
2023-03-29T16:15:10.904Z,6.49
2023-03-29T16:17:20.565Z,6.55
2023-03-29T16:19:31.496Z,6.60
2023-03-29T16:21:43.834Z,6.67
2023-03-29T16:23:53.779Z,6.74
2023-03-29T16:26:03.795Z,6.83
2023-03-29T16:28:17.172Z,6.94
2023-03-29T16:30:27.004Z,7.07
2023-03-29T16:32:36.872Z,7.19
2023-03-29T16:34:46.914Z,7.32
2023-03-29T16:36:57.343Z,7.46
2023-03-29T16:39:07.321Z,7.61
2023-03-29T16:41:19.480Z,7.76
2023-03-29T16:43:30.473Z,7.92
2023-03-29T16:45:40.837Z,8.09
2023-03-29T16:47:51.228Z,8.27
2023-03-29T16:50:01.647Z,8.43
2023-03-29T16:52:12.602Z,8.53
2023-03-29T16:54:22.714Z,8.60
2023-03-29T16:56:32.433Z,8.69
2023-03-29T16:58:44.629Z,8.78
2023-03-29T17:00:56.324Z,8.87
2023-03-29T17:03:06.725Z,8.95
2023-03-29T17:05:16.660Z,9.02
2023-03-29T17:07:26.811Z,9.09
2023-03-29T17:09:37.511Z,9.15
2023-03-29T17:11:47.712Z,9.21
2023-03-29T17:13:57.436Z,9.27
2023-03-29T17:16:07.812Z,9.35
2023-03-29T17:18:17.592Z,9.45
2023-03-29T17:20:27.498Z,9.56
2023-03-29T17:22:37.513Z,9.63
2023-03-29T17:24:47.237Z,9.72
2023-03-29T17:26:56.929Z,9.80
2023-03-29T17:29:07.445Z,9.84
2023-03-29T17:31:19.666Z,9.86
2023-03-29T17:33:29.692Z,9.87
2023-03-29T17:35:40.124Z,9.90
2023-03-29T17:37:49.952Z,9.93
2023-03-29T17:39:59.990Z,9.89
2023-03-29T17:42:10.508Z,9.85
2023-03-29T17:44:21.775Z,9.80
2023-03-29T17:46:31.779Z,9.74
2023-03-29T17:48:41.745Z,9.69
2023-03-29T17:50:51.623Z,9.68
2023-03-29T17:53:01.314Z,9.71
2023-03-29T17:55:14.076Z,9.75
2023-03-29T17:57:24.273Z,9.80
2023-03-29T17:59:34.422Z,9.80
2023-03-29T18:01:44.764Z,9.82
2023-03-29T18:03:55.342Z,9.85
2023-03-29T18:06:06.230Z,9.86
2023-03-29T18:08:17.490Z,9.90
2023-03-29T18:10:27.249Z,9.95
2023-03-29T18:12:37.283Z,10.04
2023-03-29T18:14:47.477Z,10.10
2023-03-29T18:16:58.234Z,10.12
2023-03-29T18:19:08.082Z,10.15
2023-03-29T18:21:18.653Z,10.19
2023-03-29T18:23:28.423Z,10.28
2023-03-29T18:25:39.339Z,10.37
2023-03-29T18:27:50.633Z,10.41
2023-03-29T18:30:00.534Z,10.39
2023-03-29T18:32:10.933Z,10.38
2023-03-29T18:34:21.414Z,10.43
2023-03-29T18:36:32.800Z,10.48
2023-03-29T18:38:44.026Z,10.51
2023-03-29T18:40:54.507Z,10.55
2023-03-29T18:43:04.685Z,10.57
2023-03-29T18:45:15.919Z,10.61
2023-03-29T18:47:26.081Z,10.67
2023-03-29T18:49:37.206Z,10.70
2023-03-29T18:51:48.018Z,10.66
2023-03-29T18:53:58.223Z,10.67
2023-03-29T18:56:08.569Z,10.68
2023-03-29T18:58:20.767Z,10.64
2023-03-29T19:00:30.705Z,10.65
2023-03-29T19:02:40.911Z,10.61
2023-03-29T19:04:51.756Z,10.63
2023-03-29T19:07:01.951Z,10.60
2023-03-29T19:09:11.648Z,10.59
2023-03-29T19:11:21.968Z,10.59
2023-03-29T19:13:31.719Z,10.58
2023-03-29T19:15:41.821Z,10.57
2023-03-29T19:17:51.932Z,10.57
2023-03-29T19:20:02.082Z,10.59
2023-03-29T19:22:12.032Z,10.59
2023-03-29T19:24:22.479Z,10.63
2023-03-29T19:26:33.815Z,10.65
2023-03-29T19:28:43.557Z,10.68
2023-03-29T19:30:53.371Z,10.68
2023-03-29T19:33:03.961Z,10.68
2023-03-29T19:35:14.549Z,10.65
2023-03-29T19:37:24.377Z,10.66
2023-03-29T19:39:34.385Z,10.64
2023-03-29T19:41:47.064Z,10.61
2023-03-29T19:43:57.342Z,10.63
2023-03-29T19:46:13.400Z,10.65
2023-03-29T19:48:24.315Z,10.64
2023-03-29T19:50:34.772Z,10.63
2023-03-29T19:52:44.605Z,10.65
2023-03-29T19:54:54.543Z,10.69
2023-03-29T19:57:05.106Z,10.66
2023-03-29T19:59:18.483Z,10.63
2023-03-29T20:01:28.574Z,10.60
2023-03-29T20:03:39.107Z,10.63
2023-03-29T20:05:50.605Z,10.64
2023-03-29T20:08:00.203Z,10.64
2023-03-29T20:10:11.569Z,10.67
2023-03-29T20:12:22.000Z,10.70
2023-03-29T20:14:32.013Z,10.73
2023-03-29T20:16:43.159Z,10.78
2023-03-29T20:18:54.491Z,10.82
2023-03-29T20:21:04.711Z,10.81
2023-03-29T20:23:16.070Z,10.81
2023-03-29T20:25:26.295Z,10.81
2023-03-29T20:27:36.150Z,10.81
2023-03-29T20:29:46.111Z,10.80
2023-03-29T20:31:55.704Z,10.77
2023-03-29T20:34:05.796Z,10.77
2023-03-29T20:36:19.169Z,10.76
2023-03-29T20:38:29.071Z,10.77
2023-03-29T20:40:39.422Z,10.75
2023-03-29T20:42:54.732Z,10.77
2023-03-29T20:45:05.369Z,10.80
2023-03-29T20:47:17.274Z,10.87
2023-03-29T20:49:27.872Z,10.97
2023-03-29T20:51:39.645Z,11.07
2023-03-29T20:53:49.754Z,11.14
2023-03-29T20:55:59.652Z,11.25
2023-03-29T20:58:10.365Z,11.36
2023-03-29T21:00:21.470Z,11.47
2023-03-29T21:02:31.165Z,11.55
2023-03-29T21:04:41.333Z,11.63
2023-03-29T21:06:51.434Z,11.70
2023-03-29T21:09:03.042Z,11.78
2023-03-29T21:11:18.742Z,11.92
2023-03-29T21:13:28.905Z,12.13
2023-03-29T21:15:39.123Z,12.18
2023-03-29T21:17:49.284Z,12.16
2023-03-29T21:19:59.572Z,12.08
2023-03-29T21:22:10.284Z,11.99
2023-03-29T21:24:21.274Z,11.87
2023-03-29T21:26:31.001Z,11.71
2023-03-29T21:28:41.663Z,11.56
2023-03-29T21:30:51.633Z,11.45
2023-03-29T21:33:01.978Z,11.35
2023-03-29T21:35:14.093Z,11.28
2023-03-29T21:37:24.044Z,11.25
2023-03-29T21:39:34.021Z,11.20
2023-03-29T21:41:43.851Z,11.13
2023-03-29T21:43:54.433Z,11.09
2023-03-29T21:46:04.336Z,11.06
2023-03-29T21:48:14.211Z,11.09
2023-03-29T21:50:24.301Z,11.12
2023-03-29T21:52:34.035Z,11.20
2023-03-29T21:54:43.714Z,11.23
2023-03-29T21:56:53.911Z,11.26
2023-03-29T21:59:04.114Z,11.32
2023-03-29T22:01:14.196Z,11.34
2023-03-29T22:03:24.367Z,11.38
2023-03-29T22:05:35.030Z,11.43
2023-03-29T22:07:45.070Z,11.48
2023-03-29T22:09:55.209Z,11.50
2023-03-29T22:12:05.399Z,11.54
2023-03-29T22:14:15.966Z,11.59
2023-03-29T22:16:28.631Z,11.64
2023-03-29T22:18:47.435Z,11.69
2023-03-29T22:20:57.290Z,11.67
2023-03-29T22:23:07.687Z,11.67
2023-03-29T22:25:18.246Z,11.68
2023-03-29T22:27:27.891Z,11.68
2023-03-29T22:29:37.769Z,11.66
2023-03-29T22:31:47.677Z,11.63
2023-03-29T22:33:59.114Z,11.63
2023-03-29T22:36:16.901Z,11.65
2023-03-29T22:38:26.679Z,11.65
2023-03-29T22:40:36.649Z,11.59
2023-03-29T22:42:47.198Z,11.50
2023-03-29T22:44:57.951Z,11.42
2023-03-29T22:47:07.984Z,11.41
2023-03-29T22:49:17.875Z,11.42
2023-03-29T22:51:27.946Z,11.44
2023-03-29T22:53:38.052Z,11.47
2023-03-29T22:55:47.819Z,11.52
2023-03-29T22:57:57.936Z,11.56
2023-03-29T23:00:09.531Z,11.67
2023-03-29T23:02:19.779Z,11.77
2023-03-29T23:04:29.880Z,11.86
2023-03-29T23:06:39.862Z,11.93
2023-03-29T23:08:49.710Z,11.95
2023-03-29T23:11:00.039Z,11.93
2023-03-29T23:13:10.121Z,11.91
2023-03-29T23:15:23.333Z,11.87
2023-03-29T23:17:33.184Z,11.85
2023-03-29T23:19:43.050Z,11.82
2023-03-29T23:21:53.512Z,11.77
2023-03-29T23:24:03.644Z,11.75
2023-03-29T23:26:15.008Z,11.79
2023-03-29T23:28:27.676Z,11.86
2023-03-29T23:30:39.425Z,11.96
2023-03-29T23:32:49.295Z,12.07
2023-03-29T23:35:00.502Z,12.14
2023-03-29T23:38:23.375Z,12.18
2023-03-29T23:40:24.100Z,12.25
2023-03-29T23:42:44.031Z,12.32
2023-03-29T23:44:53.959Z,12.42
2023-03-29T23:47:04.203Z,12.49
2023-03-29T23:49:14.330Z,12.56
2023-03-29T23:51:28.649Z,12.66
2023-03-29T23:53:38.267Z,12.74
2023-03-29T23:55:49.162Z,12.73
2023-03-29T23:57:58.800Z,12.67
